sensor_id;sensor_type;location;lat;lon;timestamp;temperature;humidity
6407;DHT22;3236;51.022;6.818;2023-09-12T00:00:30;20.40;99.90
6407;DHT22;3236;51.022;6.818;2023-09-12T00:02:59;20.20;99.90
6407;DHT22;3236;51.022;6.818;2023-09-12T00:05:26;20.20;99.90
6407;DHT22;3236;51.022;6.818;2023-09-12T00:07:53;19.90;99.90
6407;DHT22;3236;51.022;6.818;2023-09-12T00:10:20;20.10;99.90
6407;DHT22;3236;51.022;6.818;2023-09-12T00:12:47;20.40;99.90
6407;DHT22;3236;51.022;6.818;2023-09-12T00:15:14;20.10;99.90
6407;DHT22;3236;51.022;6.818;2023-09-12T00:17:41;20.10;99.90
6407;DHT22;3236;51.022;6.818;2023-09-12T00:20:10;20.50;99.90
6407;DHT22;3236;51.022;6.818;2023-09-12T00:22:38;20.20;99.90
6407;DHT22;3236;51.022;6.818;2023-09-12T00:25:05;20.10;99.90
6407;DHT22;3236;51.022;6.818;2023-09-12T00:27:32;20.10;99.90
6407;DHT22;3236;51.022;6.818;2023-09-12T00:29:59;19.90;99.90
6407;DHT22;3236;51.022;6.818;2023-09-12T00:34:54;20.20;99.90
6407;DHT22;3236;51.022;6.818;2023-09-12T00:37:22;20.20;99.90
6407;DHT22;3236;51.022;6.818;2023-09-12T00:39:49;20.00;99.90
6407;DHT22;3236;51.022;6.818;2023-09-12T00:42:17;19.80;99.90
6407;DHT22;3236;51.022;6.818;2023-09-12T00:44:44;20.20;99.90
6407;DHT22;3236;51.022;6.818;2023-09-12T00:47:11;19.70;99.90
6407;DHT22;3236;51.022;6.818;2023-09-12T00:49:38;20.10;99.90
6407;DHT22;3236;51.022;6.818;2023-09-12T00:52:06;19.70;99.90
6407;DHT22;3236;51.022;6.818;2023-09-12T00:54:35;20.10;99.90
6407;DHT22;3236;51.022;6.818;2023-09-12T00:57:03;20.00;99.90
6407;DHT22;3236;51.022;6.818;2023-09-12T00:59:30;20.00;99.90
6407;DHT22;3236;51.022;6.818;2023-09-12T01:01:58;20.10;99.90
6407;DHT22;3236;51.022;6.818;2023-09-12T01:04:25;20.00;99.90
6407;DHT22;3236;51.022;6.818;2023-09-12T01:09:20;20.10;99.90
6407;DHT22;3236;51.022;6.818;2023-09-12T01:11:48;20.40;99.90
6407;DHT22;3236;51.022;6.818;2023-09-12T01:14:18;19.90;99.90
6407;DHT22;3236;51.022;6.818;2023-09-12T01:16:45;19.90;99.90
6407;DHT22;3236;51.022;6.818;2023-09-12T01:19:13;19.80;99.90
6407;DHT22;3236;51.022;6.818;2023-09-12T01:22:03;19.80;99.90
6407;DHT22;3236;51.022;6.818;2023-09-12T01:28:01;19.50;99.90
6407;DHT22;3236;51.022;6.818;2023-09-12T01:30:29;19.70;99.90
6407;DHT22;3236;51.022;6.818;2023-09-12T01:32:57;19.70;99.90
6407;DHT22;3236;51.022;6.818;2023-09-12T01:35:24;19.40;99.90
6407;DHT22;3236;51.022;6.818;2023-09-12T01:40:24;19.60;99.90
6407;DHT22;3236;51.022;6.818;2023-09-12T01:42:55;19.50;99.90
6407;DHT22;3236;51.022;6.818;2023-09-12T01:45:25;19.70;99.90
6407;DHT22;3236;51.022;6.818;2023-09-12T01:50:25;20.20;99.90
6407;DHT22;3236;51.022;6.818;2023-09-12T01:52:54;19.90;99.90
6407;DHT22;3236;51.022;6.818;2023-09-12T01:55:22;20.20;99.90
6407;DHT22;3236;51.022;6.818;2023-09-12T01:57:49;19.80;99.90
6407;DHT22;3236;51.022;6.818;2023-09-12T02:00:18;19.70;99.90
6407;DHT22;3236;51.022;6.818;2023-09-12T02:02:47;19.80;99.90
6407;DHT22;3236;51.022;6.818;2023-09-12T02:05:16;19.90;99.90
6407;DHT22;3236;51.022;6.818;2023-09-12T02:07:45;19.70;99.90
6407;DHT22;3236;51.022;6.818;2023-09-12T02:10:13;19.80;99.90
6407;DHT22;3236;51.022;6.818;2023-09-12T02:12:41;19.80;99.90
6407;DHT22;3236;51.022;6.818;2023-09-12T02:15:08;19.90;99.90
6407;DHT22;3236;51.022;6.818;2023-09-12T02:17:36;19.60;99.90
6407;DHT22;3236;51.022;6.818;2023-09-12T02:20:07;20.00;99.90
6407;DHT22;3236;51.022;6.818;2023-09-12T02:22:34;19.60;99.90
6407;DHT22;3236;51.022;6.818;2023-09-12T02:25:02;19.60;99.90
6407;DHT22;3236;51.022;6.818;2023-09-12T02:27:30;19.30;99.90
6407;DHT22;3236;51.022;6.818;2023-09-12T02:29:57;19.60;99.90
6407;DHT22;3236;51.022;6.818;2023-09-12T02:32:24;20.10;99.90
6407;DHT22;3236;51.022;6.818;2023-09-12T02:34:51;19.60;99.90
6407;DHT22;3236;51.022;6.818;2023-09-12T02:37:20;19.50;99.90
6407;DHT22;3236;51.022;6.818;2023-09-12T02:39:47;19.40;99.90
6407;DHT22;3236;51.022;6.818;2023-09-12T02:42:14;20.20;99.90
6407;DHT22;3236;51.022;6.818;2023-09-12T02:44:41;19.40;99.90
6407;DHT22;3236;51.022;6.818;2023-09-12T02:47:08;19.70;99.90
6407;DHT22;3236;51.022;6.818;2023-09-12T02:49:35;19.70;99.90
6407;DHT22;3236;51.022;6.818;2023-09-12T02:52:03;19.80;99.90
6407;DHT22;3236;51.022;6.818;2023-09-12T02:54:31;19.80;99.90
6407;DHT22;3236;51.022;6.818;2023-09-12T02:56:58;19.90;99.90
6407;DHT22;3236;51.022;6.818;2023-09-12T02:59:25;19.90;99.90
6407;DHT22;3236;51.022;6.818;2023-09-12T03:01:52;19.80;99.90
6407;DHT22;3236;51.022;6.818;2023-09-12T03:04:19;19.90;99.90
6407;DHT22;3236;51.022;6.818;2023-09-12T03:06:46;19.50;99.90
6407;DHT22;3236;51.022;6.818;2023-09-12T03:09:14;20.20;99.90
6407;DHT22;3236;51.022;6.818;2023-09-12T03:11:43;19.90;99.90
6407;DHT22;3236;51.022;6.818;2023-09-12T03:14:10;19.90;99.90
6407;DHT22;3236;51.022;6.818;2023-09-12T03:16:37;19.90;99.90
6407;DHT22;3236;51.022;6.818;2023-09-12T03:19:05;19.90;99.90
6407;DHT22;3236;51.022;6.818;2023-09-12T03:21:32;19.70;99.90
6407;DHT22;3236;51.022;6.818;2023-09-12T03:23:59;19.70;99.90
6407;DHT22;3236;51.022;6.818;2023-09-12T03:26:26;20.40;99.90
6407;DHT22;3236;51.022;6.818;2023-09-12T03:28:54;20.20;99.90
6407;DHT22;3236;51.022;6.818;2023-09-12T03:31:22;20.70;99.90
6407;DHT22;3236;51.022;6.818;2023-09-12T03:33:49;20.60;99.90
6407;DHT22;3236;51.022;6.818;2023-09-12T03:36:16;21.60;99.90
6407;DHT22;3236;51.022;6.818;2023-09-12T03:38:43;21.20;99.90
6407;DHT22;3236;51.022;6.818;2023-09-12T03:41:10;20.30;99.90
6407;DHT22;3236;51.022;6.818;2023-09-12T03:43:38;20.00;99.90
6407;DHT22;3236;51.022;6.818;2023-09-12T03:46:06;20.30;99.90
6407;DHT22;3236;51.022;6.818;2023-09-12T03:48:34;20.30;99.90
6407;DHT22;3236;51.022;6.818;2023-09-12T03:51:02;20.70;99.90
6407;DHT22;3236;51.022;6.818;2023-09-12T03:53:30;20.20;99.90
6407;DHT22;3236;51.022;6.818;2023-09-12T03:55:58;20.20;99.90
6407;DHT22;3236;51.022;6.818;2023-09-12T03:58:26;20.30;99.90
6407;DHT22;3236;51.022;6.818;2023-09-12T04:00:53;20.30;99.90
6407;DHT22;3236;51.022;6.818;2023-09-12T04:03:21;20.20;99.90
6407;DHT22;3236;51.022;6.818;2023-09-12T04:05:56;20.10;99.90
6407;DHT22;3236;51.022;6.818;2023-09-12T04:08:23;20.10;99.90
6407;DHT22;3236;51.022;6.818;2023-09-12T04:10:51;19.70;99.90
6407;DHT22;3236;51.022;6.818;2023-09-12T04:13:18;20.00;99.90
6407;DHT22;3236;51.022;6.818;2023-09-12T04:15:45;20.10;99.90
6407;DHT22;3236;51.022;6.818;2023-09-12T04:18:12;20.00;99.90
6407;DHT22;3236;51.022;6.818;2023-09-12T04:20:40;20.10;99.90
6407;DHT22;3236;51.022;6.818;2023-09-12T04:23:07;20.00;99.90
6407;DHT22;3236;51.022;6.818;2023-09-12T04:25:34;20.50;99.90
6407;DHT22;3236;51.022;6.818;2023-09-12T04:28:02;20.10;99.90
6407;DHT22;3236;51.022;6.818;2023-09-12T04:30:29;20.10;99.90
6407;DHT22;3236;51.022;6.818;2023-09-12T04:32:56;20.10;99.90
6407;DHT22;3236;51.022;6.818;2023-09-12T04:35:23;20.00;99.90
6407;DHT22;3236;51.022;6.818;2023-09-12T04:37:52;20.10;99.90
6407;DHT22;3236;51.022;6.818;2023-09-12T04:40:19;20.10;99.90
6407;DHT22;3236;51.022;6.818;2023-09-12T04:42:46;20.20;99.90
6407;DHT22;3236;51.022;6.818;2023-09-12T04:45:14;19.70;99.90
6407;DHT22;3236;51.022;6.818;2023-09-12T04:47:41;19.50;99.90
6407;DHT22;3236;51.022;6.818;2023-09-12T04:50:08;19.90;99.90
6407;DHT22;3236;51.022;6.818;2023-09-12T04:52:37;20.10;99.90
6407;DHT22;3236;51.022;6.818;2023-09-12T04:55:06;19.70;99.90
6407;DHT22;3236;51.022;6.818;2023-09-12T04:57:33;19.60;99.90
6407;DHT22;3236;51.022;6.818;2023-09-12T05:00:00;19.80;99.90
6407;DHT22;3236;51.022;6.818;2023-09-12T05:02:27;19.40;99.90
6407;DHT22;3236;51.022;6.818;2023-09-12T05:04:55;19.60;99.90
6407;DHT22;3236;51.022;6.818;2023-09-12T05:07:22;19.60;99.90
6407;DHT22;3236;51.022;6.818;2023-09-12T05:09:49;20.20;99.90
6407;DHT22;3236;51.022;6.818;2023-09-12T05:12:17;20.10;99.90
6407;DHT22;3236;51.022;6.818;2023-09-12T05:14:45;19.30;99.90
6407;DHT22;3236;51.022;6.818;2023-09-12T05:19:39;19.50;99.90
6407;DHT22;3236;51.022;6.818;2023-09-12T05:22:06;20.00;99.90
6407;DHT22;3236;51.022;6.818;2023-09-12T05:24:33;19.60;99.90
6407;DHT22;3236;51.022;6.818;2023-09-12T05:29:34;19.70;99.90
6407;DHT22;3236;51.022;6.818;2023-09-12T05:32:01;19.60;99.90
6407;DHT22;3236;51.022;6.818;2023-09-12T05:34:28;19.80;99.90
6407;DHT22;3236;51.022;6.818;2023-09-12T05:36:56;19.80;99.90
6407;DHT22;3236;51.022;6.818;2023-09-12T05:39:23;20.10;99.90
6407;DHT22;3236;51.022;6.818;2023-09-12T05:41:50;20.20;99.90
6407;DHT22;3236;51.022;6.818;2023-09-12T05:44:17;19.90;99.90
6407;DHT22;3236;51.022;6.818;2023-09-12T05:46:46;20.40;99.90
6407;DHT22;3236;51.022;6.818;2023-09-12T05:49:17;19.40;99.90
6407;DHT22;3236;51.022;6.818;2023-09-12T05:51:44;20.00;99.90
6407;DHT22;3236;51.022;6.818;2023-09-12T05:54:11;20.20;99.90
6407;DHT22;3236;51.022;6.818;2023-09-12T05:56:39;20.30;99.90
6407;DHT22;3236;51.022;6.818;2023-09-12T05:59:06;20.80;99.90
6407;DHT22;3236;51.022;6.818;2023-09-12T06:01:33;20.80;99.90
6407;DHT22;3236;51.022;6.818;2023-09-12T06:04:02;20.40;99.90
6407;DHT22;3236;51.022;6.818;2023-09-12T06:06:32;20.50;99.90
6407;DHT22;3236;51.022;6.818;2023-09-12T06:08:59;20.60;99.90
6407;DHT22;3236;51.022;6.818;2023-09-12T06:11:26;20.50;99.90
6407;DHT22;3236;51.022;6.818;2023-09-12T06:13:53;20.70;99.90
6407;DHT22;3236;51.022;6.818;2023-09-12T06:16:20;21.00;99.90
6407;DHT22;3236;51.022;6.818;2023-09-12T06:18:48;20.70;99.90
6407;DHT22;3236;51.022;6.818;2023-09-12T06:21:16;20.80;99.90
6407;DHT22;3236;51.022;6.818;2023-09-12T06:23:43;20.90;99.90
6407;DHT22;3236;51.022;6.818;2023-09-12T06:26:10;21.10;99.90
6407;DHT22;3236;51.022;6.818;2023-09-12T06:28:38;21.10;99.90
6407;DHT22;3236;51.022;6.818;2023-09-12T06:31:08;21.30;99.90
6407;DHT22;3236;51.022;6.818;2023-09-12T06:33:35;21.30;99.90
6407;DHT22;3236;51.022;6.818;2023-09-12T06:36:03;21.50;99.90
6407;DHT22;3236;51.022;6.818;2023-09-12T06:38:32;21.60;99.90
6407;DHT22;3236;51.022;6.818;2023-09-12T06:40:59;21.70;99.90
6407;DHT22;3236;51.022;6.818;2023-09-12T06:43:29;21.70;99.90
6407;DHT22;3236;51.022;6.818;2023-09-12T06:45:56;21.60;99.90
6407;DHT22;3236;51.022;6.818;2023-09-12T06:48:23;21.60;99.90
6407;DHT22;3236;51.022;6.818;2023-09-12T06:50:53;21.50;99.90
6407;DHT22;3236;51.022;6.818;2023-09-12T06:53:20;21.60;99.90
6407;DHT22;3236;51.022;6.818;2023-09-12T06:55:49;21.60;99.90
6407;DHT22;3236;51.022;6.818;2023-09-12T06:58:16;21.60;99.90
6407;DHT22;3236;51.022;6.818;2023-09-12T07:00:43;21.60;99.90
6407;DHT22;3236;51.022;6.818;2023-09-12T07:03:10;21.80;99.90
6407;DHT22;3236;51.022;6.818;2023-09-12T07:05:37;22.00;99.90
6407;DHT22;3236;51.022;6.818;2023-09-12T07:08:05;22.10;99.90
6407;DHT22;3236;51.022;6.818;2023-09-12T07:10:34;22.10;99.90
6407;DHT22;3236;51.022;6.818;2023-09-12T07:13:03;22.10;99.90
6407;DHT22;3236;51.022;6.818;2023-09-12T07:15:30;22.20;99.90
6407;DHT22;3236;51.022;6.818;2023-09-12T07:17:57;22.20;99.90
6407;DHT22;3236;51.022;6.818;2023-09-12T07:20:25;22.40;99.90
6407;DHT22;3236;51.022;6.818;2023-09-12T07:25:19;22.10;99.90
6407;DHT22;3236;51.022;6.818;2023-09-12T07:27:49;22.00;99.90
6407;DHT22;3236;51.022;6.818;2023-09-12T07:30:18;22.30;99.90
6407;DHT22;3236;51.022;6.818;2023-09-12T07:32:45;22.30;99.90
6407;DHT22;3236;51.022;6.818;2023-09-12T07:37:43;22.30;99.90
6407;DHT22;3236;51.022;6.818;2023-09-12T07:40:11;22.30;99.90
6407;DHT22;3236;51.022;6.818;2023-09-12T07:42:38;22.30;99.90
6407;DHT22;3236;51.022;6.818;2023-09-12T07:45:06;22.30;99.90
6407;DHT22;3236;51.022;6.818;2023-09-12T07:47:34;22.70;99.90
6407;DHT22;3236;51.022;6.818;2023-09-12T07:50:02;21.70;99.90
6407;DHT22;3236;51.022;6.818;2023-09-12T07:52:29;22.40;99.90
6407;DHT22;3236;51.022;6.818;2023-09-12T07:54:59;22.50;99.90
6407;DHT22;3236;51.022;6.818;2023-09-12T07:57:27;22.70;99.90
6407;DHT22;3236;51.022;6.818;2023-09-12T07:59:55;22.70;99.90
6407;DHT22;3236;51.022;6.818;2023-09-12T08:04:50;22.70;99.90
6407;DHT22;3236;51.022;6.818;2023-09-12T08:07:19;22.80;99.90
6407;DHT22;3236;51.022;6.818;2023-09-12T08:09:50;22.80;99.90
6407;DHT22;3236;51.022;6.818;2023-09-12T08:12:18;22.90;99.90
6407;DHT22;3236;51.022;6.818;2023-09-12T08:14:48;22.90;99.90
6407;DHT22;3236;51.022;6.818;2023-09-12T08:17:15;23.30;99.90
6407;DHT22;3236;51.022;6.818;2023-09-12T08:19:43;22.80;99.90
6407;DHT22;3236;51.022;6.818;2023-09-12T08:22:12;22.90;99.90
6407;DHT22;3236;51.022;6.818;2023-09-12T08:24:39;22.90;99.90
6407;DHT22;3236;51.022;6.818;2023-09-12T08:27:07;23.00;99.90
6407;DHT22;3236;51.022;6.818;2023-09-12T08:29:35;23.00;99.90
6407;DHT22;3236;51.022;6.818;2023-09-12T08:32:04;21.60;99.90
6407;DHT22;3236;51.022;6.818;2023-09-12T08:34:31;23.00;99.90
6407;DHT22;3236;51.022;6.818;2023-09-12T08:36:58;23.00;99.90
6407;DHT22;3236;51.022;6.818;2023-09-12T08:39:27;23.00;99.90
6407;DHT22;3236;51.022;6.818;2023-09-12T08:41:54;23.20;99.90
6407;DHT22;3236;51.022;6.818;2023-09-12T08:44:22;23.20;99.90
6407;DHT22;3236;51.022;6.818;2023-09-12T08:46:49;23.40;99.90
6407;DHT22;3236;51.022;6.818;2023-09-12T08:51:44;23.50;99.90
6407;DHT22;3236;51.022;6.818;2023-09-12T08:54:11;23.50;99.90
6407;DHT22;3236;51.022;6.818;2023-09-12T08:56:42;23.50;99.90
6407;DHT22;3236;51.022;6.818;2023-09-12T08:59:13;23.20;99.90
6407;DHT22;3236;51.022;6.818;2023-09-12T09:01:40;23.30;99.90
6407;DHT22;3236;51.022;6.818;2023-09-12T09:04:09;23.40;99.90
6407;DHT22;3236;51.022;6.818;2023-09-12T09:06:37;23.40;99.90
6407;DHT22;3236;51.022;6.818;2023-09-12T09:09:05;23.50;99.90
6407;DHT22;3236;51.022;6.818;2023-09-12T09:11:33;23.70;99.90
6407;DHT22;3236;51.022;6.818;2023-09-12T09:14:03;23.50;99.90
6407;DHT22;3236;51.022;6.818;2023-09-12T09:16:30;23.60;99.90
6407;DHT22;3236;51.022;6.818;2023-09-12T09:19:03;23.50;99.90
6407;DHT22;3236;51.022;6.818;2023-09-12T09:21:33;23.50;99.90
6407;DHT22;3236;51.022;6.818;2023-09-12T09:24:01;23.90;99.90
6407;DHT22;3236;51.022;6.818;2023-09-12T09:26:42;23.40;99.90
6407;DHT22;3236;51.022;6.818;2023-09-12T09:29:14;23.40;99.90
6407;DHT22;3236;51.022;6.818;2023-09-12T09:31:41;23.50;99.90
6407;DHT22;3236;51.022;6.818;2023-09-12T09:34:13;23.50;99.90
6407;DHT22;3236;51.022;6.818;2023-09-12T09:39:12;23.60;99.90
6407;DHT22;3236;51.022;6.818;2023-09-12T09:44:08;23.70;99.90
6407;DHT22;3236;51.022;6.818;2023-09-12T09:46:37;23.80;99.90
6407;DHT22;3236;51.022;6.818;2023-09-12T09:49:04;23.70;99.90
6407;DHT22;3236;51.022;6.818;2023-09-12T09:51:33;23.70;99.90
6407;DHT22;3236;51.022;6.818;2023-09-12T09:54:07;23.40;73.20
6407;DHT22;3236;51.022;6.818;2023-09-12T09:56:45;24.10;99.90
6407;DHT22;3236;51.022;6.818;2023-09-12T09:59:14;23.90;95.80
6407;DHT22;3236;51.022;6.818;2023-09-12T10:01:44;24.00;99.90
6407;DHT22;3236;51.022;6.818;2023-09-12T10:04:12;24.00;99.90
6407;DHT22;3236;51.022;6.818;2023-09-12T10:06:39;24.60;99.90
6407;DHT22;3236;51.022;6.818;2023-09-12T10:09:09;24.20;99.90
6407;DHT22;3236;51.022;6.818;2023-09-12T10:11:38;24.40;99.90
6407;DHT22;3236;51.022;6.818;2023-09-12T10:14:06;24.40;99.90
6407;DHT22;3236;51.022;6.818;2023-09-12T10:16:35;24.90;99.90
6407;DHT22;3236;51.022;6.818;2023-09-12T10:19:10;24.80;1.00
6407;DHT22;3236;51.022;6.818;2023-09-12T10:21:46;24.70;1.00
6407;DHT22;3236;51.022;6.818;2023-09-12T10:24:15;24.80;99.90
6407;DHT22;3236;51.022;6.818;2023-09-12T10:26:43;25.00;99.90
6407;DHT22;3236;51.022;6.818;2023-09-12T10:29:13;25.30;1.00
6407;DHT22;3236;51.022;6.818;2023-09-12T10:31:40;25.50;56.00
6407;DHT22;3236;51.022;6.818;2023-09-12T10:36:39;25.60;1.00
6407;DHT22;3236;51.022;6.818;2023-09-12T10:39:07;26.30;1.00
6407;DHT22;3236;51.022;6.818;2023-09-12T10:41:37;26.10;1.00
6407;DHT22;3236;51.022;6.818;2023-09-12T10:44:09;26.20;96.30
6407;DHT22;3236;51.022;6.818;2023-09-12T10:46:37;26.20;96.00
6407;DHT22;3236;51.022;6.818;2023-09-12T10:49:07;26.80;99.90
6407;DHT22;3236;51.022;6.818;2023-09-12T10:51:38;26.80;1.00
6407;DHT22;3236;51.022;6.818;2023-09-12T10:54:06;27.10;99.90
6407;DHT22;3236;51.022;6.818;2023-09-12T10:56:33;26.90;99.90
6407;DHT22;3236;51.022;6.818;2023-09-12T10:59:12;27.20;99.90
6407;DHT22;3236;51.022;6.818;2023-09-12T11:01:40;27.10;99.90
6407;DHT22;3236;51.022;6.818;2023-09-12T11:04:30;27.70;99.90
6407;DHT22;3236;51.022;6.818;2023-09-12T11:07:00;28.00;1.00
6407;DHT22;3236;51.022;6.818;2023-09-12T11:09:28;28.40;88.60
6407;DHT22;3236;51.022;6.818;2023-09-12T11:11:57;28.70;60.80
6407;DHT22;3236;51.022;6.818;2023-09-12T11:14:25;28.10;1.00
6407;DHT22;3236;51.022;6.818;2023-09-12T11:17:20;28.50;99.90
6407;DHT22;3236;51.022;6.818;2023-09-12T11:19:49;28.50;99.90
6407;DHT22;3236;51.022;6.818;2023-09-12T11:22:27;27.70;99.90
6407;DHT22;3236;51.022;6.818;2023-09-12T11:24:55;29.90;99.90
6407;DHT22;3236;51.022;6.818;2023-09-12T11:27:24;31.10;64.90
6407;DHT22;3236;51.022;6.818;2023-09-12T11:29:52;30.50;1.00
6407;DHT22;3236;51.022;6.818;2023-09-12T11:32:29;31.00;1.00
6407;DHT22;3236;51.022;6.818;2023-09-12T11:39:55;31.30;99.90
6407;DHT22;3236;51.022;6.818;2023-09-12T11:44:52;31.20;99.90
6407;DHT22;3236;51.022;6.818;2023-09-12T11:47:19;31.00;99.90
6407;DHT22;3236;51.022;6.818;2023-09-12T11:49:47;31.40;99.90
6407;DHT22;3236;51.022;6.818;2023-09-12T11:52:15;31.60;99.90
6407;DHT22;3236;51.022;6.818;2023-09-12T11:54:44;31.40;99.90
6407;DHT22;3236;51.022;6.818;2023-09-12T11:57:14;32.00;99.90
6407;DHT22;3236;51.022;6.818;2023-09-12T11:59:43;32.10;99.90
6407;DHT22;3236;51.022;6.818;2023-09-12T12:02:12;31.00;99.90
6407;DHT22;3236;51.022;6.818;2023-09-12T12:04:43;29.90;99.90
6407;DHT22;3236;51.022;6.818;2023-09-12T12:07:11;30.30;99.90
6407;DHT22;3236;51.022;6.818;2023-09-12T12:09:38;31.20;99.90
6407;DHT22;3236;51.022;6.818;2023-09-12T12:12:12;30.90;99.90
6407;DHT22;3236;51.022;6.818;2023-09-12T12:14:40;30.70;99.90
6407;DHT22;3236;51.022;6.818;2023-09-12T12:17:08;31.40;99.90
6407;DHT22;3236;51.022;6.818;2023-09-12T12:19:35;32.30;99.90
6407;DHT22;3236;51.022;6.818;2023-09-12T12:22:03;32.70;99.90
6407;DHT22;3236;51.022;6.818;2023-09-12T12:24:40;31.20;99.90
6407;DHT22;3236;51.022;6.818;2023-09-12T12:27:08;32.70;99.90
6407;DHT22;3236;51.022;6.818;2023-09-12T12:29:38;32.70;99.90
6407;DHT22;3236;51.022;6.818;2023-09-12T12:32:06;32.10;99.90
6407;DHT22;3236;51.022;6.818;2023-09-12T12:34:35;31.50;99.90
6407;DHT22;3236;51.022;6.818;2023-09-12T12:37:03;30.40;99.90
6407;DHT22;3236;51.022;6.818;2023-09-12T12:39:31;30.50;99.90
6407;DHT22;3236;51.022;6.818;2023-09-12T12:41:59;30.70;99.90
6407;DHT22;3236;51.022;6.818;2023-09-12T12:44:33;30.30;99.90
6407;DHT22;3236;51.022;6.818;2023-09-12T12:47:05;30.30;99.90
6407;DHT22;3236;51.022;6.818;2023-09-12T12:49:36;28.90;99.90
6407;DHT22;3236;51.022;6.818;2023-09-12T12:52:05;30.70;99.90
6407;DHT22;3236;51.022;6.818;2023-09-12T12:54:32;30.20;99.90
6407;DHT22;3236;51.022;6.818;2023-09-12T12:57:00;31.40;99.90
6407;DHT22;3236;51.022;6.818;2023-09-12T12:59:28;32.30;99.90
6407;DHT22;3236;51.022;6.818;2023-09-12T13:02:00;32.10;99.90
6407;DHT22;3236;51.022;6.818;2023-09-12T13:04:36;32.40;99.90
6407;DHT22;3236;51.022;6.818;2023-09-12T13:07:03;33.00;99.90
6407;DHT22;3236;51.022;6.818;2023-09-12T13:09:31;33.40;99.90
6407;DHT22;3236;51.022;6.818;2023-09-12T13:11:58;32.50;82.70
6407;DHT22;3236;51.022;6.818;2023-09-12T13:16:57;33.30;74.90
6407;DHT22;3236;51.022;6.818;2023-09-12T13:19:24;33.20;60.40
6407;DHT22;3236;51.022;6.818;2023-09-12T13:21:53;32.90;43.60
6407;DHT22;3236;51.022;6.818;2023-09-12T13:24:20;34.00;62.60
6407;DHT22;3236;51.022;6.818;2023-09-12T13:26:47;33.90;39.00
6407;DHT22;3236;51.022;6.818;2023-09-12T13:29:14;35.90;37.10
6407;DHT22;3236;51.022;6.818;2023-09-12T13:31:42;33.50;10.70
6407;DHT22;3236;51.022;6.818;2023-09-12T13:34:09;33.80;7.40
6407;DHT22;3236;51.022;6.818;2023-09-12T13:36:36;32.10;1.00
6407;DHT22;3236;51.022;6.818;2023-09-12T13:39:06;32.00;1.00
6407;DHT22;3236;51.022;6.818;2023-09-12T13:41:36;33.80;24.10
6407;DHT22;3236;51.022;6.818;2023-09-12T13:44:05;34.60;26.00
6407;DHT22;3236;51.022;6.818;2023-09-12T13:49:00;33.30;2.30
6407;DHT22;3236;51.022;6.818;2023-09-12T13:51:29;32.50;1.00
6407;DHT22;3236;51.022;6.818;2023-09-12T13:53:56;32.30;7.70
6407;DHT22;3236;51.022;6.818;2023-09-12T13:56:24;33.00;8.00
6407;DHT22;3236;51.022;6.818;2023-09-12T13:58:51;31.30;10.50
6407;DHT22;3236;51.022;6.818;2023-09-12T14:01:18;30.60;16.60
6407;DHT22;3236;51.022;6.818;2023-09-12T14:03:46;30.30;29.40
6407;DHT22;3236;51.022;6.818;2023-09-12T14:06:13;31.00;61.90
6407;DHT22;3236;51.022;6.818;2023-09-12T14:08:40;31.40;63.00
6407;DHT22;3236;51.022;6.818;2023-09-12T14:11:08;32.40;45.60
6407;DHT22;3236;51.022;6.818;2023-09-12T14:13:36;34.40;46.60
6407;DHT22;3236;51.022;6.818;2023-09-12T14:16:03;34.00;24.70
6407;DHT22;3236;51.022;6.818;2023-09-12T14:18:33;33.90;1.00
6407;DHT22;3236;51.022;6.818;2023-09-12T14:21:01;34.10;1.00
6407;DHT22;3236;51.022;6.818;2023-09-12T14:23:28;33.50;1.00
6407;DHT22;3236;51.022;6.818;2023-09-12T14:25:55;33.00;1.00
6407;DHT22;3236;51.022;6.818;2023-09-12T14:28:22;32.90;1.00
6407;DHT22;3236;51.022;6.818;2023-09-12T14:30:51;33.70;1.00
6407;DHT22;3236;51.022;6.818;2023-09-12T14:33:18;33.90;1.00
6407;DHT22;3236;51.022;6.818;2023-09-12T14:35:47;33.60;1.00
6407;DHT22;3236;51.022;6.818;2023-09-12T14:38:14;32.70;1.00
6407;DHT22;3236;51.022;6.818;2023-09-12T14:43:09;32.00;1.00
6407;DHT22;3236;51.022;6.818;2023-09-12T14:45:36;31.10;1.00
6407;DHT22;3236;51.022;6.818;2023-09-12T14:48:06;30.90;1.00
6407;DHT22;3236;51.022;6.818;2023-09-12T14:50:33;30.50;1.00
6407;DHT22;3236;51.022;6.818;2023-09-12T14:53:01;30.70;1.00
6407;DHT22;3236;51.022;6.818;2023-09-12T14:55:28;30.20;1.00
6407;DHT22;3236;51.022;6.818;2023-09-12T14:57:55;29.90;14.00
6407;DHT22;3236;51.022;6.818;2023-09-12T15:00:23;29.30;58.40
6407;DHT22;3236;51.022;6.818;2023-09-12T15:02:50;28.00;99.90
6407;DHT22;3236;51.022;6.818;2023-09-12T15:10:14;28.20;99.90
6407;DHT22;3236;51.022;6.818;2023-09-12T15:12:41;28.90;99.90
6407;DHT22;3236;51.022;6.818;2023-09-12T15:15:09;28.60;99.90
6407;DHT22;3236;51.022;6.818;2023-09-12T15:17:36;27.80;99.90
6407;DHT22;3236;51.022;6.818;2023-09-12T15:20:04;27.50;99.90
6407;DHT22;3236;51.022;6.818;2023-09-12T15:22:33;27.80;99.90
6407;DHT22;3236;51.022;6.818;2023-09-12T15:25:02;27.50;99.90
6407;DHT22;3236;51.022;6.818;2023-09-12T15:27:29;27.60;99.90
6407;DHT22;3236;51.022;6.818;2023-09-12T15:29:59;27.80;99.90
6407;DHT22;3236;51.022;6.818;2023-09-12T15:32:26;28.70;99.90
6407;DHT22;3236;51.022;6.818;2023-09-12T15:34:53;29.40;99.90
6407;DHT22;3236;51.022;6.818;2023-09-12T15:37:21;29.90;99.90
6407;DHT22;3236;51.022;6.818;2023-09-12T15:39:49;31.00;99.90
6407;DHT22;3236;51.022;6.818;2023-09-12T15:42:16;32.10;99.90
6407;DHT22;3236;51.022;6.818;2023-09-12T15:44:44;30.50;99.90
6407;DHT22;3236;51.022;6.818;2023-09-12T15:47:14;31.20;99.90
6407;DHT22;3236;51.022;6.818;2023-09-12T15:49:41;31.80;98.10
6407;DHT22;3236;51.022;6.818;2023-09-12T15:52:08;31.20;99.90
6407;DHT22;3236;51.022;6.818;2023-09-12T15:54:35;31.90;77.70
6407;DHT22;3236;51.022;6.818;2023-09-12T15:57:04;30.40;66.20
6407;DHT22;3236;51.022;6.818;2023-09-12T15:59:32;30.90;99.90
6407;DHT22;3236;51.022;6.818;2023-09-12T16:02:00;30.20;84.80
6407;DHT22;3236;51.022;6.818;2023-09-12T16:04:27;30.80;99.90
6407;DHT22;3236;51.022;6.818;2023-09-12T16:06:54;28.90;99.90
6407;DHT22;3236;51.022;6.818;2023-09-12T16:09:21;28.40;99.90
6407;DHT22;3236;51.022;6.818;2023-09-12T16:11:48;28.10;99.90
6407;DHT22;3236;51.022;6.818;2023-09-12T16:16:44;27.40;2.00
6407;DHT22;3236;51.022;6.818;2023-09-12T16:19:11;27.20;99.90
6407;DHT22;3236;51.022;6.818;2023-09-12T16:21:38;26.10;99.90
6407;DHT22;3236;51.022;6.818;2023-09-12T16:24:09;26.40;99.90
6407;DHT22;3236;51.022;6.818;2023-09-12T16:26:37;26.30;99.90
6407;DHT22;3236;51.022;6.818;2023-09-12T16:29:04;26.30;99.90
6407;DHT22;3236;51.022;6.818;2023-09-12T16:31:32;25.60;99.90
6407;DHT22;3236;51.022;6.818;2023-09-12T16:34:00;25.30;1.00
6407;DHT22;3236;51.022;6.818;2023-09-12T16:36:28;25.10;99.90
6407;DHT22;3236;51.022;6.818;2023-09-12T16:38:55;25.80;99.90
6407;DHT22;3236;51.022;6.818;2023-09-12T16:41:22;25.00;95.70
6407;DHT22;3236;51.022;6.818;2023-09-12T16:43:49;25.30;99.90
6407;DHT22;3236;51.022;6.818;2023-09-12T16:46:16;25.30;77.50
6407;DHT22;3236;51.022;6.818;2023-09-12T16:48:45;25.50;99.90
6407;DHT22;3236;51.022;6.818;2023-09-12T16:51:12;25.30;99.90
6407;DHT22;3236;51.022;6.818;2023-09-12T16:53:40;25.00;9.80
6407;DHT22;3236;51.022;6.818;2023-09-12T16:56:07;24.60;99.90
6407;DHT22;3236;51.022;6.818;2023-09-12T16:58:34;24.20;99.90
6407;DHT22;3236;51.022;6.818;2023-09-12T17:03:29;24.50;88.70
6407;DHT22;3236;51.022;6.818;2023-09-12T17:05:58;24.50;99.90
6407;DHT22;3236;51.022;6.818;2023-09-12T17:08:27;24.90;1.00